Hauptseite
METAR-TAF:

METAR-TAF

Flughäfen :

Flughafen Aarhus

Aarhus, Dänemark

Breite: 56-18N, Länge: 010-37E, Höhe: 23 m

Beobachtung

Neuester Wetterbericht von vor 18 Minuten, um 23:20 UTC
Wind 4 kt aus West
Temperatur 2°C
Luftfeuchtigkeit 75%
Luftdruck 1006 hPa
Sichtweite 10 km oder mehr

METAR: EKAH 162320Z AUTO 27004KT 9999 FEW180/// 02/M02 Q1006

Zeit: 01:38 (23:38 UTC)

Prognose

Neuester Wetterbericht von vor 24 Minuten, um 23:14 UTC
Gültige Prognose vom 17 um 00 UTC bis 17 um 24 UTC
Wind 5 kt aus West/Nordwest
Sichtweite 10 km oder mehr
Leicht bewölkt in der Höhe von 3000 ft
Wahrscheinlichkeit 40%
vom 17 um 02 UTC bis 17 um 06 UTC
Sichtweite: 4000 m
Durchbrochene Bewölkung in der Höhe von 800 ft
feuchter Dunst,

TAF: EKAH 162314Z 1700/1724 30005KT 9999 FEW030 PROB40 1702/1706 4000 BR BKN008

Wetterbeobachtungen und Prognosen von mehr als 4000 Flughäfen (METAR und TAF Bericht).

Die verfügbaren Stationen werden durch gelbe und rote Markierungen auf der Karte dargestellt.

Führen Sie die Maus auf sie, um den Namen der Station zu sehen.

Darauf klicken, um die Beobachtung von Wetterbeobachtungen und Prognosen zu sehen.

Um die Karte zu ändern : klicken Sie auf den grünen Tasten mit einem schwarzen Kreuz Zum Vergrößern, auf den grünen Button mit einem Gedankenstrich zu verkleinern, oder auf die grünen Pfeile für benachbarte Karten.


METAR-TAF: